Bismarck Municipal Airport Bismarck US
ICAO: KBIS
IATA: BIS
Category: Medium
Scheduled Services: Yes

Elevation: 1661 ft
TransAlt. 18000 ft.

Airport Communications:
APP/DEP:126.3
ATIS:119.35
CTAF:118.3
GND:121.9
ARNG OPS:49.8
GRAND FORKS RDO:122.2
TWR:118.3
UNICOM:122.95

KBIS Zoom In..

If you have problems with the map follow the link
https://www.worldairports.se/pages/airport.php?
ICAO=KBIS

Runways:

(A) RW 03 length 6600 ft width 100 ft
---- / hdg 32

(B) RW 13 length 8794 ft width 150 ft
ILS 111.50 / hdg 131

(C) RW 21 length 6600 ft width 100 ft
---- / hdg 212

(D) RW 31 length 8794 ft width 150 ft
ILS 110.30 / hdg 311

Location; KBIS
Day. 17 / Time. 02.27 Zulu
* Altimeter: 30.36
* Temperature: -09° c. -15.8°f.
* Wind from: 030° Speed 14 kn with Gusts up to 19 kn.
Dewpoint: -12° c.
Visibility: 10 Statute Miles.
Clouds: Overcast 3100 ft.

KBIS 170227Z 03014G19KT 10SM OVC031 M09/M12 A3036 RMK AO2 SNB0157E22 P0000 T10891122


Wind From 030°
Speed 14 kn.

 
 
jpsmedia.com for Web Design worldairports.se 2018   terms of use